Eagleville, Massachusetts
Current Conditions -  °F | °C
As of 11:52 PM on Wednesday 22 Oct 2014 (Local Time) from KORE Reporting Station
Heavy Rain Heavy Rain  
Wind Chill: 44°   Ceiling: 1400
Heat Index: 48°   Visibility: 2.5mi
Dew Point: 45°   Wind: 9mph
Humidity: 89%   Direction: 20°NNE
Pressure: 29.88"   Gusts: NA
Location:  42.614°N, 72.3011°W
Report Text: KORE 230352Z AUTO 02008KT 2 1/2SM +RA BR OVC014 09/07 A2988 RMK AO2 PK WND 03027/0325 SLP122 P0020 T00890072
Loading
Personal Weather Stations






























Interactive Weather Map
Tropical Storm Tracking
New forecast layout! Learn more

10-Day Weather Forecast

Advertisements
Track Severe Weather on mobile